createdAt,value
2019-06-10T00:00:13.759Z,4.90
2019-06-10T00:02:33.823Z,6.97
2019-06-10T00:05:02.435Z,4.00
2019-06-10T00:07:27.781Z,5.60
2019-06-10T00:09:53.784Z,6.07
2019-06-10T00:12:20.980Z,5.20
2019-06-10T00:14:47.471Z,5.33
2019-06-10T00:17:13.535Z,7.60
2019-06-10T00:19:40.921Z,6.43
2019-06-10T00:22:08.482Z,6.03
2019-06-10T00:24:35.279Z,5.30
2019-06-10T00:27:02.885Z,5.30
2019-06-10T00:29:31.240Z,4.13
2019-06-10T00:31:58.500Z,8.57
2019-06-10T00:34:24.583Z,2.90
2019-06-10T00:36:51.143Z,8.33
2019-06-10T00:39:17.315Z,7.33
2019-06-10T00:41:43.340Z,8.13
2019-06-10T00:44:12.295Z,4.10
2019-06-10T00:46:37.539Z,5.93
2019-06-10T00:49:04.603Z,5.67
2019-06-10T00:51:32.205Z,9.23
2019-06-10T00:53:58.237Z,4.73
2019-06-10T00:56:25.224Z,6.40
2019-06-10T00:58:51.596Z,5.07
2019-06-10T01:01:17.783Z,6.33
2019-06-10T01:03:44.219Z,4.13
2019-06-10T01:06:13.703Z,7.10
2019-06-10T01:08:40.237Z,6.73
2019-06-10T01:11:12.522Z,4.37
2019-06-10T01:13:34.157Z,5.83
2019-06-10T01:16:01.648Z,11.43
2019-06-10T01:18:37.506Z,7.17
2019-06-10T01:20:55.921Z,3.90
2019-06-10T01:23:22.027Z,5.93
2019-06-10T01:25:50.912Z,6.07
2019-06-10T01:28:16.988Z,6.23
2019-06-10T01:30:44.391Z,8.57
2019-06-10T01:33:12.370Z,7.03
2019-06-10T01:35:38.366Z,4.07
2019-06-10T01:38:04.377Z,6.30
2019-06-10T01:40:31.462Z,7.00
2019-06-10T01:42:57.611Z,5.17
2019-06-10T01:45:23.622Z,4.07
2019-06-10T01:47:51.119Z,9.07
2019-06-10T01:50:18.862Z,4.30
2019-06-10T01:52:45.235Z,21.40
2019-06-10T01:55:13.797Z,7.10
2019-06-10T01:57:41.309Z,4.47
2019-06-10T02:00:13.430Z,5.27
2019-06-10T02:02:38.007Z,6.33
2019-06-10T02:05:05.486Z,6.27
2019-06-10T02:07:32.004Z,6.07
2019-06-10T02:10:00.952Z,5.43
2019-06-10T02:12:26.510Z,5.80
2019-06-10T02:14:52.531Z,2.80
2019-06-10T02:17:20.045Z,5.47
2019-06-10T02:19:46.852Z,4.77
2019-06-10T02:22:15.477Z,6.77
2019-06-10T02:24:41.675Z,10.93
2019-06-10T02:27:07.915Z,9.23
2019-06-10T02:29:33.943Z,6.90
2019-06-10T02:32:04.277Z,4.37
2019-06-10T02:34:28.314Z,3.60
2019-06-10T02:36:54.427Z,9.23
2019-06-10T02:39:28.047Z,5.77
2019-06-10T02:41:53.345Z,6.03
2019-06-10T02:44:21.765Z,5.33
2019-06-10T02:46:46.380Z,8.07
2019-06-10T02:49:23.256Z,6.03
2019-06-10T02:51:43.326Z,9.20
2019-06-10T02:54:08.316Z,5.17
2019-06-10T02:56:36.486Z,7.03
2019-06-10T02:59:03.350Z,5.07
2019-06-10T03:01:34.225Z,6.73
2019-06-10T03:03:57.999Z,6.17
2019-06-10T03:06:32.485Z,5.43
2019-06-10T03:08:54.922Z,4.23
2019-06-10T03:11:24.271Z,6.97
2019-06-10T03:13:48.138Z,6.37
2019-06-10T03:16:23.977Z,6.93
2019-06-10T03:18:52.385Z,5.87
2019-06-10T03:21:17.998Z,9.27
2019-06-10T03:23:44.312Z,5.23
2019-06-10T03:26:12.342Z,8.80
2019-06-10T03:28:38.236Z,4.30
2019-06-10T03:31:06.131Z,6.30
2019-06-10T03:33:41.066Z,4.10
2019-06-10T03:36:00.211Z,7.77
2019-06-10T03:38:28.180Z,9.73
2019-06-10T03:40:54.364Z,10.73
2019-06-10T03:43:21.407Z,7.73
2019-06-10T03:45:48.535Z,6.73
2019-06-10T03:48:15.051Z,7.17
2019-06-10T03:50:43.133Z,5.03
2019-06-10T03:53:09.523Z,5.77
2019-06-10T03:55:35.535Z,7.10
2019-06-10T03:58:02.219Z,6.03
2019-06-10T04:00:29.104Z,8.10
2019-06-10T04:02:55.107Z,14.43
2019-06-10T04:05:23.913Z,8.23
2019-06-10T04:07:49.552Z,4.23
2019-06-10T04:10:15.566Z,6.57
2019-06-10T04:12:43.437Z,6.47
2019-06-10T04:15:12.134Z,7.47
2019-06-10T04:17:37.679Z,9.63
2019-06-10T04:20:12.061Z,7.73
2019-06-10T04:22:33.539Z,7.07
2019-06-10T04:24:59.552Z,9.30
2019-06-10T04:27:26.766Z,7.60
2019-06-10T04:29:54.467Z,7.27
2019-06-10T04:32:22.758Z,4.10
2019-06-10T04:34:48.655Z,5.40
2019-06-10T04:37:14.765Z,8.10
2019-06-10T04:39:42.632Z,6.10
2019-06-10T04:42:08.699Z,12.93
2019-06-10T04:44:34.731Z,7.73
2019-06-10T04:47:02.681Z,7.23
2019-06-10T04:49:29.768Z,6.97
2019-06-10T04:51:56.241Z,5.30
2019-06-10T04:54:24.749Z,7.07
2019-06-10T04:56:52.860Z,6.13
2019-06-10T04:59:19.140Z,6.20
2019-06-10T05:01:45.299Z,4.40
2019-06-10T05:04:12.553Z,11.00
2019-06-10T05:06:39.331Z,7.53
2019-06-10T05:09:05.364Z,8.03
2019-06-10T05:11:33.115Z,7.53
2019-06-10T05:13:59.366Z,7.87
2019-06-10T05:16:28.890Z,6.60
2019-06-10T05:18:54.870Z,4.63
2019-06-10T05:21:24.751Z,6.80
2019-06-10T05:23:49.176Z,7.13
2019-06-10T05:26:15.535Z,8.33
2019-06-10T05:28:43.317Z,8.83
2019-06-10T05:31:09.546Z,12.23
2019-06-10T05:33:35.551Z,7.97
2019-06-10T05:36:02.495Z,8.90
2019-06-10T05:38:29.989Z,12.80
2019-06-10T05:40:56.820Z,7.50
2019-06-10T05:43:24.749Z,8.67
2019-06-10T05:45:52.897Z,5.63
2019-06-10T05:48:18.810Z,6.33
2019-06-10T05:50:56.949Z,6.17
2019-06-10T05:53:13.163Z,7.40
2019-06-10T05:55:39.284Z,8.53
2019-06-10T05:58:05.324Z,7.73
2019-06-10T06:00:33.764Z,8.27
2019-06-10T06:02:59.576Z,7.20
2019-06-10T06:05:26.036Z,6.77
2019-06-10T06:08:04.116Z,7.83
2019-06-10T06:10:22.128Z,4.80
2019-06-10T06:12:48.519Z,7.70
2019-06-10T06:15:14.570Z,8.20
2019-06-10T06:17:42.961Z,8.40
2019-06-10T06:20:08.635Z,9.60
2019-06-10T06:22:35.690Z,7.10
2019-06-10T06:25:05.966Z,6.93
2019-06-10T06:27:33.877Z,8.47
2019-06-10T06:30:02.799Z,6.70
2019-06-10T06:32:28.380Z,6.53
2019-06-10T06:34:54.519Z,7.30
2019-06-10T06:37:22.996Z,8.20
2019-06-10T06:39:48.478Z,7.50
2019-06-10T06:42:14.532Z,6.37
2019-06-10T06:44:43.366Z,5.93
2019-06-10T06:47:13.208Z,6.43
2019-06-10T06:49:39.592Z,6.77
2019-06-10T06:52:05.646Z,7.10
2019-06-10T06:54:33.379Z,11.13
2019-06-10T06:57:03.251Z,10.67
2019-06-10T06:59:29.165Z,6.70
2019-06-10T07:01:55.371Z,8.33
2019-06-10T07:04:23.547Z,3.67
2019-06-10T07:06:53.304Z,5.53
2019-06-10T07:09:17.659Z,9.07
2019-06-10T07:11:45.115Z,6.50
2019-06-10T07:14:13.338Z,7.73
2019-06-10T07:16:41.663Z,8.17
2019-06-10T07:19:07.827Z,6.87
2019-06-10T07:21:55.707Z,8.27
2019-06-10T07:24:03.675Z,5.90
2019-06-10T07:26:29.830Z,11.93
2019-06-10T07:28:55.835Z,11.90
2019-06-10T07:31:26.970Z,5.43
2019-06-10T07:33:52.338Z,9.63
2019-06-10T07:36:17.924Z,11.43
2019-06-10T07:38:48.616Z,10.87
2019-06-10T07:41:12.579Z,14.37
2019-06-10T07:43:42.564Z,7.80
2019-06-10T07:46:06.707Z,10.33
2019-06-10T07:48:34.822Z,6.67
2019-06-10T07:51:02.807Z,5.57
2019-06-10T07:53:29.024Z,9.27
2019-06-10T07:55:55.067Z,6.23
2019-06-10T07:58:22.473Z,8.40
2019-06-10T08:00:48.768Z,12.37
2019-06-10T08:03:15.191Z,7.60
2019-06-10T08:05:46.317Z,11.20
2019-06-10T08:08:14.166Z,14.97
2019-06-10T08:10:42.790Z,7.90
2019-06-10T08:13:08.179Z,5.10
2019-06-10T08:15:35.460Z,7.23
2019-06-10T08:18:04.327Z,8.70
2019-06-10T08:20:45.317Z,8.17
2019-06-10T08:23:12.931Z,7.67
2019-06-10T08:25:40.363Z,9.00
2019-06-10T08:28:06.576Z,8.53
2019-06-10T08:30:32.991Z,11.17
2019-06-10T08:32:59.219Z,4.63
2019-06-10T08:35:39.352Z,8.00
2019-06-10T08:37:57.519Z,5.83
2019-06-10T08:40:23.530Z,7.87
2019-06-10T08:42:49.595Z,6.70
2019-06-10T08:45:15.726Z,5.57
2019-06-10T08:47:45.678Z,6.93
2019-06-10T08:50:13.539Z,4.70
2019-06-10T08:52:56.860Z,7.13
2019-06-10T08:55:07.532Z,5.03
2019-06-10T08:57:33.615Z,4.87
2019-06-10T08:59:59.797Z,5.40
2019-06-10T09:02:25.846Z,6.17
2019-06-10T09:04:53.556Z,7.27
2019-06-10T09:07:25.254Z,5.90
2019-06-10T09:09:53.976Z,5.40
2019-06-10T09:12:30.312Z,8.27
2019-06-10T09:14:49.649Z,7.70
2019-06-10T09:17:16.083Z,9.77
2019-06-10T09:19:44.598Z,11.27
2019-06-10T09:22:12.506Z,9.00
2019-06-10T09:24:38.982Z,8.20
2019-06-10T09:27:08.459Z,4.90
2019-06-10T09:29:34.616Z,7.30
2019-06-10T09:32:02.186Z,7.80
2019-06-10T09:34:28.395Z,9.43
2019-06-10T09:36:56.843Z,9.63
2019-06-10T09:39:23.020Z,8.53
2019-06-10T09:41:57.743Z,14.27
2019-06-10T09:44:17.320Z,5.17
2019-06-10T09:46:47.029Z,6.60
2019-06-10T09:49:12.735Z,9.30
2019-06-10T09:51:44.435Z,4.77
2019-06-10T09:54:07.216Z,6.20
2019-06-10T09:56:38.308Z,5.50
2019-06-10T09:59:04.408Z,6.73
2019-06-10T10:01:33.192Z,7.67
2019-06-10T10:04:08.173Z,6.57
2019-06-10T10:06:34.350Z,5.50
2019-06-10T10:09:04.015Z,6.03
2019-06-10T10:11:38.470Z,6.00
2019-06-10T10:14:08.574Z,6.57
2019-06-10T10:16:33.968Z,6.03
2019-06-10T10:19:01.566Z,4.93
2019-06-10T10:21:28.255Z,6.17
2019-06-10T10:24:06.889Z,3.77
2019-06-10T10:26:22.282Z,4.37
2019-06-10T10:28:54.106Z,8.83
2019-06-10T10:31:18.301Z,4.70
2019-06-10T10:33:44.441Z,4.73
2019-06-10T10:36:13.239Z,8.10
2019-06-10T10:38:38.598Z,5.47
2019-06-10T10:41:05.071Z,12.17
2019-06-10T10:43:34.247Z,5.90
2019-06-10T10:46:04.232Z,10.30
2019-06-10T10:48:27.276Z,6.53
2019-06-10T10:50:56.022Z,5.33
2019-06-10T10:53:23.807Z,5.43
2019-06-10T10:56:25.342Z,5.90
2019-06-10T10:58:57.718Z,7.33
2019-06-10T11:01:26.283Z,5.60
2019-06-10T11:03:58.790Z,6.43
2019-06-10T11:06:25.522Z,7.27
2019-06-10T11:08:55.837Z,7.00
2019-06-10T11:11:23.537Z,11.33
2019-06-10T11:13:53.320Z,6.23
2019-06-10T11:16:17.705Z,6.00
2019-06-10T11:18:44.952Z,7.03
2019-06-10T11:21:13.351Z,6.50
2019-06-10T11:23:43.533Z,4.30
2019-06-10T11:26:12.185Z,13.23
2019-06-10T11:28:38.730Z,8.90
2019-06-10T11:31:04.753Z,5.57
2019-06-10T11:33:33.851Z,6.00
2019-06-10T11:36:02.844Z,7.27
2019-06-10T11:38:28.651Z,8.53
2019-06-10T11:40:58.130Z,5.57
2019-06-10T11:43:22.964Z,4.97
2019-06-10T11:46:02.704Z,7.57
2019-06-10T11:48:24.752Z,6.43
2019-06-10T11:50:54.368Z,7.10
2019-06-10T11:53:18.816Z,7.13
2019-06-10T11:55:44.843Z,8.07
2019-06-10T11:58:17.944Z,3.53
2019-06-10T12:00:46.774Z,6.20
2019-06-10T12:03:16.618Z,10.68
2019-06-10T12:05:42.643Z,3.75
2019-06-10T12:08:08.682Z,6.35
2019-06-10T12:13:48.815Z,9.98
2019-06-10T12:17:05.780Z,6.55
2019-06-10T12:18:42.804Z,4.35
2019-06-10T12:21:09.063Z,7.40
2019-06-10T12:23:35.163Z,7.12
2019-06-10T12:26:04.511Z,4.35
2019-06-10T12:28:38.553Z,6.10
2019-06-10T12:31:13.765Z,5.03
2019-06-10T12:33:51.105Z,6.60
2019-06-10T12:36:18.264Z,5.67
2019-06-10T12:38:55.370Z,4.42
2019-06-10T12:41:23.347Z,7.30
2019-06-10T12:43:56.659Z,6.78
2019-06-10T12:46:32.677Z,5.15
2019-06-10T12:49:02.109Z,5.08
2019-06-10T12:51:26.700Z,7.85
2019-06-10T12:53:57.309Z,6.33
2019-06-10T12:56:23.431Z,18.45
2019-06-10T12:58:49.444Z,7.10
2019-06-10T13:01:15.592Z,7.42
2019-06-10T13:03:43.700Z,5.80
2019-06-10T13:06:09.935Z,5.67
2019-06-10T13:08:37.352Z,7.37
2019-06-10T13:11:14.961Z,6.03
2019-06-10T13:13:45.350Z,5.78
2019-06-10T13:16:14.087Z,7.62
2019-06-10T13:18:40.368Z,7.72
2019-06-10T13:21:13.615Z,16.73
2019-06-10T13:23:37.695Z,6.95
2019-06-10T13:26:10.444Z,6.05
2019-06-10T13:28:32.628Z,7.50
2019-06-10T13:30:59.144Z,4.85
2019-06-10T13:33:25.224Z,7.30
2019-06-10T13:35:59.842Z,4.33
2019-06-10T13:38:33.148Z,5.85
2019-06-10T13:41:16.867Z,4.85
2019-06-10T13:43:43.404Z,6.87
2019-06-10T13:46:10.987Z,6.50
2019-06-10T13:48:37.973Z,3.98
2019-06-10T13:51:08.499Z,7.10
2019-06-10T13:53:32.038Z,7.83
2019-06-10T13:56:18.995Z,7.25
2019-06-10T13:58:26.487Z,6.47
2019-06-10T14:00:53.597Z,6.87
2019-06-10T14:03:20.055Z,4.53
2019-06-10T14:05:46.111Z,5.03
2019-06-10T14:08:23.367Z,7.00
2019-06-10T14:10:49.971Z,6.85
2019-06-10T14:13:16.090Z,18.87
2019-06-10T14:15:42.877Z,6.80
2019-06-10T14:18:10.654Z,4.20
2019-06-10T14:20:37.294Z,8.10
2019-06-10T14:23:04.141Z,5.17
2019-06-10T14:25:30.359Z,7.10
2019-06-10T14:28:38.048Z,6.45
2019-06-10T14:30:55.918Z,9.23
2019-06-10T14:33:29.406Z,7.80
2019-06-10T14:35:57.575Z,6.07
2019-06-10T14:38:28.523Z,6.67
2019-06-10T14:41:10.114Z,6.63
2019-06-10T14:43:44.422Z,4.83
2019-06-10T14:46:17.636Z,5.97
2019-06-10T14:48:48.557Z,13.20
2019-06-10T14:51:16.876Z,5.72
2019-06-10T14:53:43.923Z,7.87
2019-06-10T14:56:13.181Z,6.97
2019-06-10T14:58:37.871Z,9.15
2019-06-10T15:01:04.748Z,11.40
2019-06-10T15:03:32.713Z,6.83
2019-06-10T15:05:59.024Z,8.73
2019-06-10T15:08:26.374Z,11.15
2019-06-10T15:10:54.912Z,8.53
2019-06-10T15:13:23.563Z,8.05
2019-06-10T15:15:49.107Z,5.40
2019-06-10T15:18:18.005Z,7.17
2019-06-10T15:20:43.135Z,5.53
2019-06-10T15:23:11.493Z,8.03
2019-06-10T15:25:52.416Z,6.80
2019-06-10T15:28:17.631Z,8.63
2019-06-10T15:30:46.839Z,6.85
2019-06-10T15:33:35.828Z,5.15
2019-06-10T15:36:09.013Z,4.17
2019-06-10T15:38:37.857Z,6.40
2019-06-10T15:41:03.910Z,6.28
2019-06-10T15:43:29.927Z,5.83
2019-06-10T15:46:03.961Z,8.20
2019-06-10T15:48:29.977Z,5.53
2019-06-10T15:50:56.003Z,6.08
2019-06-10T15:53:25.616Z,5.30
2019-06-10T15:56:13.327Z,7.60
2019-06-10T15:58:24.588Z,4.37
2019-06-10T16:00:53.639Z,6.22
2019-06-10T16:03:45.121Z,6.62
2019-06-10T16:06:12.175Z,6.47
2019-06-10T16:08:38.373Z,9.08
2019-06-10T16:11:04.417Z,7.92
2019-06-10T16:13:32.262Z,6.22
2019-06-10T16:15:58.939Z,7.45
2019-06-10T16:18:28.215Z,6.10
2019-06-10T16:20:54.725Z,9.70
2019-06-10T16:23:24.537Z,7.05
2019-06-10T16:25:48.690Z,10.55
2019-06-10T16:28:16.763Z,6.87
2019-06-10T16:30:42.989Z,5.93
2019-06-10T16:33:13.160Z,7.30
2019-06-10T16:35:39.475Z,5.77
2019-06-10T16:38:08.013Z,7.80
2019-06-10T16:40:34.023Z,6.70
2019-06-10T16:43:25.415Z,7.70
2019-06-10T16:45:52.511Z,9.27
2019-06-10T16:48:22.220Z,7.50
2019-06-10T16:51:04.683Z,10.03
2019-06-10T16:53:34.641Z,9.60
2019-06-10T16:56:04.701Z,12.80
2019-06-10T16:58:35.417Z,7.17
2019-06-10T17:01:07.067Z,9.47
2019-06-10T17:03:42.539Z,9.17
2019-06-10T17:06:08.278Z,10.47
2019-06-10T17:08:42.642Z,9.80
2019-06-10T17:11:12.384Z,13.87
2019-06-10T17:13:42.221Z,9.73
2019-06-10T17:16:22.481Z,11.93
2019-06-10T17:18:48.182Z,12.87
2019-06-10T17:21:14.195Z,11.33
2019-06-10T17:23:43.122Z,10.93
2019-06-10T17:26:08.675Z,11.20
2019-06-10T17:28:42.813Z,9.57
2019-06-10T17:31:09.192Z,11.80
2019-06-10T17:33:35.987Z,11.60
2019-06-10T17:36:03.343Z,8.27
2019-06-10T17:38:31.219Z,9.60
2019-06-10T17:40:57.368Z,10.77
2019-06-10T17:43:23.410Z,13.07
2019-06-10T17:45:59.124Z,9.43
2019-06-10T17:48:33.647Z,18.00
2019-06-10T17:51:18.715Z,12.47
2019-06-10T17:53:44.782Z,11.30
2019-06-10T17:56:24.607Z,13.80
2019-06-10T17:58:58.033Z,12.73
2019-06-10T18:01:25.446Z,12.67
2019-06-10T18:03:53.222Z,13.03
2019-06-10T18:06:19.242Z,14.43
2019-06-10T18:08:55.724Z,11.23
2019-06-10T18:11:19.252Z,12.13
2019-06-10T18:13:45.271Z,13.80
2019-06-10T18:16:36.449Z,13.50
2019-06-10T18:19:03.180Z,11.50
2019-06-10T18:21:36.469Z,15.03
2019-06-10T18:24:07.601Z,12.70
2019-06-10T18:26:30.985Z,12.93
2019-06-10T18:29:05.012Z,13.60
2019-06-10T18:31:27.490Z,15.97
2019-06-10T18:33:53.623Z,10.93
2019-06-10T18:36:24.208Z,11.73
2019-06-10T18:38:52.680Z,12.60
2019-06-10T18:41:18.887Z,13.20
2019-06-10T18:43:44.914Z,14.57
2019-06-10T18:46:12.760Z,14.30
2019-06-10T18:48:46.478Z,17.73
2019-06-10T19:15:52.733Z,15.80
2019-06-10T19:18:18.647Z,20.23
2019-06-10T19:20:45.359Z,13.33
2019-06-10T19:23:14.476Z,17.23
2019-06-10T19:25:41.348Z,17.43
2019-06-10T19:28:07.338Z,15.20
2019-06-10T19:30:35.975Z,13.80
2019-06-10T19:33:02.429Z,15.37
2019-06-10T19:35:36.998Z,11.47
2019-06-10T19:38:03.975Z,20.30
2019-06-10T19:40:32.114Z,20.23
2019-06-10T19:42:57.939Z,15.43
2019-06-10T19:45:23.979Z,18.43
2019-06-10T19:47:52.172Z,15.83
2019-06-10T19:50:18.701Z,14.53
2019-06-10T19:52:45.511Z,17.93
2019-06-10T19:55:13.315Z,13.07
2019-06-10T19:57:39.575Z,17.23
2019-06-10T20:00:12.136Z,15.73
2019-06-10T20:02:35.800Z,13.63
2019-06-10T20:05:04.895Z,13.97
2019-06-10T20:07:30.909Z,19.63
2019-06-10T20:09:56.941Z,14.50
2019-06-10T20:12:23.658Z,16.83
2019-06-10T20:14:52.959Z,14.60
2019-06-10T20:17:19.097Z,21.37
2019-06-10T20:19:49.230Z,22.23
2019-06-10T20:22:15.249Z,20.67
2019-06-10T20:24:44.727Z,13.97
2019-06-10T20:27:09.272Z,18.13
2019-06-10T20:29:35.766Z,17.70
2019-06-10T20:32:01.895Z,14.73
2019-06-10T20:34:28.039Z,18.63
2019-06-10T20:36:54.072Z,12.70
2019-06-10T20:39:24.414Z,16.50
2019-06-10T20:41:51.101Z,16.97
2019-06-10T20:44:16.121Z,25.10
2019-06-10T20:46:43.465Z,15.03
2019-06-10T20:49:13.650Z,20.60
2019-06-10T20:51:51.982Z,19.90
2019-06-10T20:54:07.821Z,17.10
2019-06-10T20:56:33.931Z,17.10
2019-06-10T20:58:59.952Z,17.53
2019-06-10T21:01:25.966Z,14.77
2019-06-10T21:03:54.256Z,25.60
2019-06-10T21:06:22.496Z,16.30
2019-06-10T21:08:50.904Z,16.63
2019-06-10T21:11:17.440Z,18.97
2019-06-10T21:13:47.286Z,19.17
2019-06-10T21:16:12.602Z,20.97
2019-06-10T21:18:43.715Z,14.70
2019-06-10T21:21:09.098Z,17.83
2019-06-10T21:23:35.116Z,17.17
2019-06-10T21:26:02.970Z,18.63
2019-06-10T21:28:29.159Z,19.73
2019-06-10T21:30:58.861Z,27.13
2019-06-10T21:33:23.504Z,21.00
2019-06-10T21:35:50.349Z,18.83
2019-06-10T21:38:17.547Z,17.77
2019-06-10T21:40:45.136Z,13.93
2019-06-10T21:43:12.970Z,18.30
2019-06-10T21:45:39.187Z,17.30
2019-06-10T21:48:05.217Z,17.60
2019-06-10T21:50:33.337Z,15.57
2019-06-10T21:52:59.143Z,17.77
2019-06-10T21:55:25.412Z,17.77
2019-06-10T21:57:53.577Z,24.67
2019-06-10T22:00:22.307Z,16.43
2019-06-10T22:02:50.556Z,20.67
2019-06-10T22:05:16.846Z,17.33
2019-06-10T22:07:43.858Z,21.23
2019-06-10T22:10:13.055Z,19.37
2019-06-10T22:12:39.139Z,26.27
2019-06-10T22:15:07.776Z,22.80
2019-06-10T22:17:34.112Z,21.47
2019-06-10T22:20:00.472Z,18.67
2019-06-10T22:22:27.579Z,24.70
2019-06-10T22:24:54.818Z,24.70
2019-06-10T22:27:22.341Z,17.93
2019-06-10T22:29:49.170Z,21.90
2019-06-10T22:32:18.091Z,27.33
2019-06-10T22:34:45.254Z,24.67
2019-06-10T22:37:12.471Z,25.33
2019-06-10T22:39:38.765Z,18.43
2019-06-10T22:42:04.820Z,22.40
2019-06-10T22:44:38.668Z,24.40
2019-06-10T22:47:04.735Z,18.93
2019-06-10T22:49:32.789Z,27.67
2019-06-10T22:52:00.365Z,19.50
2019-06-10T22:54:26.848Z,24.07
2019-06-10T22:56:56.205Z,23.30
2019-06-10T22:59:22.808Z,22.63
2019-06-10T23:01:48.828Z,23.23
2019-06-10T23:04:14.836Z,23.33
2019-06-10T23:06:40.887Z,26.17
2019-06-10T23:09:06.932Z,23.37
2019-06-10T23:11:32.948Z,26.37
2019-06-10T23:13:59.634Z,19.27
2019-06-10T23:16:26.799Z,20.57
2019-06-10T23:18:55.010Z,21.13
2019-06-10T23:21:21.217Z,23.60
2019-06-10T23:23:47.363Z,16.87
2019-06-10T23:26:13.371Z,21.03
2019-06-10T23:28:39.379Z,18.37
2019-06-10T23:31:05.672Z,16.87
2019-06-10T23:33:32.374Z,19.27
2019-06-10T23:35:58.760Z,23.73
2019-06-10T23:38:24.863Z,17.67
2019-06-10T23:40:52.771Z,21.37
2019-06-10T23:43:18.989Z,21.53
2019-06-10T23:45:45.325Z,19.27
2019-06-10T23:48:13.339Z,21.23
2019-06-10T23:50:39.276Z,20.37
2019-06-10T23:53:07.833Z,23.10
2019-06-10T23:55:33.839Z,21.27
2019-06-10T23:58:00.414Z,23.20
